createdAt,value
2023-03-01T00:00:08.969Z,1.50
2023-03-01T00:02:36.308Z,1.58
2023-03-01T00:05:03.662Z,1.47
2023-03-01T00:07:30.363Z,1.54
2023-03-01T00:09:58.594Z,1.50
2023-03-01T00:12:25.544Z,1.39
2023-03-01T00:14:52.345Z,1.50
2023-03-01T00:17:19.225Z,1.37
2023-03-01T00:19:45.822Z,1.40
2023-03-01T00:22:12.408Z,1.12
2023-03-01T00:24:39.385Z,1.10
2023-03-01T00:27:07.728Z,1.22
2023-03-01T00:29:34.384Z,1.18
2023-03-01T00:32:00.969Z,1.16
2023-03-01T00:34:27.631Z,1.25
2023-03-01T00:36:54.328Z,0.97
2023-03-01T00:39:21.004Z,1.02
2023-03-01T00:41:47.523Z,1.07
2023-03-01T00:44:15.543Z,0.87
2023-03-01T00:46:42.077Z,0.82
2023-03-01T00:49:08.657Z,1.06
2023-03-01T00:51:35.597Z,0.94
2023-03-01T00:54:03.680Z,0.64
2023-03-01T00:56:31.660Z,0.76
2023-03-01T00:58:58.466Z,0.71
2023-03-01T01:01:29.261Z,0.68
2023-03-01T01:03:57.551Z,0.77
2023-03-01T01:06:26.030Z,0.65
2023-03-01T01:08:54.276Z,0.62
2023-03-01T01:11:21.952Z,0.50
2023-03-01T01:13:49.024Z,0.42
2023-03-01T01:16:16.719Z,0.48
2023-03-01T01:18:45.047Z,0.67
2023-03-01T01:21:14.310Z,0.81
2023-03-01T01:23:42.525Z,0.68
2023-03-01T01:26:12.253Z,0.73
2023-03-01T01:28:41.920Z,0.76
2023-03-01T01:31:08.641Z,0.71
2023-03-01T01:33:35.640Z,0.68
2023-03-01T01:36:04.294Z,0.70
2023-03-01T01:38:30.914Z,0.92
2023-03-01T01:40:57.701Z,0.88
2023-03-01T01:43:28.338Z,0.60
2023-03-01T01:45:56.653Z,0.67
2023-03-01T01:48:29.623Z,0.86
2023-03-01T01:50:59.828Z,0.63
2023-03-01T01:53:28.348Z,0.70
2023-03-01T01:55:56.797Z,0.75
2023-03-01T01:58:26.911Z,0.65
2023-03-01T02:00:54.083Z,0.71
2023-03-01T02:03:25.416Z,0.41
2023-03-01T02:05:56.296Z,0.51
2023-03-01T02:08:26.179Z,0.53
2023-03-01T02:10:55.862Z,0.52
2023-03-01T02:13:22.570Z,0.72
2023-03-01T02:15:50.362Z,0.49
2023-03-01T02:18:20.126Z,0.36
2023-03-01T02:20:59.146Z,0.31
2023-03-01T02:23:26.034Z,0.47
2023-03-01T02:25:59.203Z,0.30
2023-03-01T02:28:34.674Z,0.21
2023-03-01T02:31:02.638Z,0.07
2023-03-01T02:33:30.552Z,0.25
2023-03-01T02:35:57.680Z,0.06
2023-03-01T02:38:25.945Z,0.16
2023-03-01T02:40:53.222Z,0.28
2023-03-01T02:43:22.265Z,0.16
2023-03-01T02:45:52.359Z,0.07
2023-03-01T02:48:19.355Z,0.42
2023-03-01T02:50:56.953Z,0.18
2023-03-01T02:53:31.681Z,0.19
2023-03-01T02:55:58.244Z,0.24
2023-03-01T02:58:25.011Z,0.43
2023-03-01T03:00:53.505Z,0.14
2023-03-01T03:03:22.126Z,-0.06
2023-03-01T03:05:48.910Z,0.02
2023-03-01T03:08:16.201Z,-0.03
2023-03-01T03:10:42.965Z,0.06
2023-03-01T03:13:12.554Z,-0.12
2023-03-01T03:15:39.925Z,0.06
2023-03-01T03:18:10.898Z,-0.02
2023-03-01T03:20:38.207Z,0.10
2023-03-01T03:23:05.105Z,0.08
2023-03-01T03:25:31.769Z,-0.15
2023-03-01T03:27:59.076Z,0.02
2023-03-01T03:30:27.697Z,-0.06
2023-03-01T03:32:54.288Z,0.02
2023-03-01T03:35:24.523Z,-0.04
2023-03-01T03:37:52.054Z,-0.14
2023-03-01T03:40:18.802Z,-0.15
2023-03-01T03:42:45.691Z,-0.25
2023-03-01T03:45:12.274Z,-0.01
2023-03-01T03:47:38.946Z,-0.03
2023-03-01T03:50:06.398Z,-0.11
2023-03-01T03:52:34.548Z,-0.07
2023-03-01T03:55:01.117Z,-0.03
2023-03-01T03:57:27.753Z,-0.04
2023-03-01T03:59:54.297Z,-0.21
2023-03-01T04:02:20.860Z,-0.05
2023-03-01T04:04:47.497Z,0.11
2023-03-01T04:07:14.101Z,-0.07
2023-03-01T04:09:42.254Z,-0.09
2023-03-01T04:12:08.819Z,0.03
2023-03-01T04:14:35.474Z,-0.15
2023-03-01T04:17:02.053Z,0.21
2023-03-01T04:19:28.648Z,0.03
2023-03-01T04:22:08.023Z,-0.13
2023-03-01T04:24:35.154Z,-0.27
2023-03-01T04:27:03.553Z,0.11
2023-03-01T04:29:30.433Z,-0.10
2023-03-01T04:31:57.073Z,-0.26
2023-03-01T04:34:23.747Z,-0.02
2023-03-01T04:36:50.363Z,-0.09
2023-03-01T04:39:16.973Z,-0.27
2023-03-01T04:41:43.656Z,-0.28
2023-03-01T04:44:12.119Z,-0.25
2023-03-01T04:46:38.787Z,-0.14
2023-03-01T04:49:05.649Z,-0.21
2023-03-01T04:51:32.514Z,-0.26
2023-03-01T04:53:59.470Z,-0.22
2023-03-01T04:56:26.153Z,-0.16
2023-03-01T04:58:54.700Z,-0.31
2023-03-01T05:01:23.048Z,0.08
2023-03-01T05:03:51.958Z,-0.08
2023-03-01T05:06:20.204Z,-0.16
2023-03-01T05:08:47.334Z,-0.21
2023-03-01T05:11:14.034Z,-0.10
2023-03-01T05:13:41.375Z,-0.53
2023-03-01T05:16:09.285Z,-0.27
2023-03-01T05:18:37.569Z,-0.34
2023-03-01T05:21:06.396Z,-0.41
2023-03-01T05:23:33.906Z,-0.28
2023-03-01T05:26:01.270Z,-0.43
2023-03-01T05:28:28.389Z,-0.37
2023-03-01T05:30:55.036Z,-0.18
2023-03-01T05:33:21.930Z,-0.43
2023-03-01T05:35:51.605Z,-0.48
2023-03-01T05:38:18.873Z,-0.45
2023-03-01T05:40:49.630Z,-0.31
2023-03-01T05:43:17.973Z,-0.10
2023-03-01T05:45:45.280Z,-0.21
2023-03-01T05:48:12.999Z,-0.56
2023-03-01T05:50:41.057Z,-0.21
2023-03-01T05:53:12.423Z,-0.25
2023-03-01T05:55:39.232Z,-0.05
2023-03-01T05:58:07.512Z,-0.26
2023-03-01T06:00:35.890Z,-0.36
2023-03-01T06:03:02.953Z,-0.41
2023-03-01T06:05:44.594Z,-0.33
2023-03-01T06:08:13.675Z,-0.29
2023-03-01T06:10:40.450Z,-0.34
2023-03-01T06:13:07.011Z,-0.42
2023-03-01T06:15:33.798Z,-0.16
2023-03-01T06:18:00.626Z,-0.04
2023-03-01T06:20:30.156Z,-0.40
2023-03-01T06:22:57.437Z,-0.07
2023-03-01T06:25:28.120Z,0.15
2023-03-01T06:27:54.845Z,-0.04
2023-03-01T06:30:23.515Z,-0.11
2023-03-01T06:32:50.217Z,-0.03
2023-03-01T06:35:18.250Z,0.06
2023-03-01T06:37:47.260Z,0.20
2023-03-01T06:40:14.925Z,0.21
2023-03-01T06:42:48.163Z,0.27
2023-03-01T06:45:18.248Z,0.31
2023-03-01T06:47:45.732Z,0.31
2023-03-01T06:53:35.863Z,0.30
2023-03-01T06:56:02.405Z,0.24
2023-03-01T06:58:30.260Z,0.32
2023-03-01T07:00:57.028Z,0.40
2023-03-01T07:03:23.699Z,0.36
2023-03-01T07:05:50.395Z,0.81
2023-03-01T07:08:17.015Z,0.89
2023-03-01T07:10:43.544Z,0.80
2023-03-01T07:13:10.194Z,1.19
2023-03-01T07:15:38.136Z,1.29
2023-03-01T07:18:05.186Z,1.75
2023-03-01T07:20:31.793Z,1.13
2023-03-01T07:22:58.563Z,1.61
2023-03-01T07:25:25.311Z,1.53
2023-03-01T07:27:52.694Z,2.02
2023-03-01T07:30:19.840Z,1.90
2023-03-01T07:32:48.182Z,2.15
2023-03-01T07:35:15.106Z,2.41
2023-03-01T07:37:41.815Z,2.46
2023-03-01T07:40:09.645Z,2.53
2023-03-01T07:42:36.407Z,2.86
2023-03-01T07:45:03.297Z,3.07
2023-03-01T07:47:29.861Z,3.47
2023-03-01T07:49:57.967Z,3.89
2023-03-01T07:52:24.577Z,4.00
2023-03-01T07:54:51.350Z,4.34
2023-03-01T07:57:17.910Z,3.89
2023-03-01T07:59:44.786Z,4.26
2023-03-01T08:02:11.712Z,3.89
2023-03-01T08:04:38.592Z,4.14
2023-03-01T08:07:07.118Z,4.53
2023-03-01T08:09:35.973Z,4.12
2023-03-01T08:12:02.683Z,3.74
2023-03-01T08:14:29.438Z,3.56
2023-03-01T08:16:56.194Z,3.85
2023-03-01T08:19:22.868Z,4.03
2023-03-01T08:21:49.501Z,4.53
2023-03-01T08:24:17.715Z,4.93
2023-03-01T08:26:44.422Z,4.99
2023-03-01T08:29:11.128Z,4.90
2023-03-01T08:31:40.804Z,4.54
2023-03-01T08:34:09.171Z,5.04
2023-03-01T08:36:37.909Z,5.39
2023-03-01T08:39:05.430Z,4.68
2023-03-01T08:41:34.143Z,5.33
2023-03-01T08:44:01.106Z,5.23
2023-03-01T08:46:28.339Z,4.43
2023-03-01T08:48:54.977Z,4.74
2023-03-01T08:51:22.914Z,4.58
2023-03-01T08:53:49.822Z,4.56
2023-03-01T08:56:17.162Z,4.78
2023-03-01T08:58:47.380Z,5.01
2023-03-01T09:01:16.448Z,5.37
2023-03-01T09:03:43.534Z,4.91
2023-03-01T09:06:11.569Z,5.41
2023-03-01T09:08:39.611Z,4.93
2023-03-01T09:11:08.183Z,5.13
2023-03-01T09:13:35.062Z,5.10
2023-03-01T09:16:09.462Z,5.01
2023-03-01T09:18:36.819Z,5.08
2023-03-01T09:21:04.660Z,4.76
2023-03-01T09:23:31.209Z,4.89
2023-03-01T09:25:57.882Z,5.47
2023-03-01T09:28:29.969Z,6.01
2023-03-01T09:30:59.473Z,5.86
2023-03-01T09:33:28.295Z,6.18
2023-03-01T09:35:57.929Z,6.12
2023-03-01T09:38:25.941Z,6.09
2023-03-01T09:40:54.139Z,5.72
2023-03-01T09:43:28.484Z,5.38
2023-03-01T09:45:56.840Z,5.02
2023-03-01T09:48:28.345Z,5.01
2023-03-01T09:50:55.235Z,5.03
2023-03-01T09:53:23.898Z,5.20
2023-03-01T09:55:55.869Z,5.14
2023-03-01T09:58:35.365Z,5.11
2023-03-01T10:01:11.689Z,5.33
2023-03-01T10:03:45.649Z,5.30
2023-03-01T10:06:27.511Z,5.12
2023-03-01T10:09:05.180Z,5.47
2023-03-01T10:11:37.077Z,5.45
2023-03-01T10:14:08.016Z,5.34
2023-03-01T10:16:44.637Z,5.04
2023-03-01T10:19:18.025Z,5.69
2023-03-01T10:21:46.922Z,4.88
2023-03-01T10:24:16.100Z,5.04
2023-03-01T10:26:51.822Z,5.57
2023-03-01T10:29:24.494Z,5.40
2023-03-01T10:31:52.686Z,5.58
2023-03-01T10:34:23.638Z,5.62
2023-03-01T10:36:52.218Z,5.65
2023-03-01T10:39:21.263Z,5.25
2023-03-01T10:41:59.838Z,5.80
2023-03-01T10:44:46.062Z,5.40
2023-03-01T10:47:21.571Z,4.93
2023-03-01T10:50:04.884Z,6.02
2023-03-01T10:52:34.938Z,6.18
2023-03-01T10:55:05.580Z,5.96
2023-03-01T10:57:35.562Z,5.23
2023-03-01T11:00:17.674Z,5.35
2023-03-01T11:02:44.784Z,5.94
2023-03-01T11:05:21.621Z,5.32
2023-03-01T11:07:49.211Z,5.40
2023-03-01T11:10:19.489Z,5.81
2023-03-01T11:12:46.326Z,6.31
2023-03-01T11:15:23.785Z,6.20
2023-03-01T11:17:57.074Z,6.27
2023-03-01T11:20:33.084Z,6.55
2023-03-01T11:23:04.051Z,6.35
2023-03-01T11:25:36.099Z,6.10
2023-03-01T11:28:05.226Z,6.17
2023-03-01T11:30:36.408Z,6.16
2023-03-01T11:33:14.691Z,5.94
2023-03-01T11:35:48.832Z,5.82
2023-03-01T11:38:20.902Z,6.32
2023-03-01T11:40:55.111Z,6.10
2023-03-01T11:43:32.407Z,6.36
2023-03-01T11:46:32.783Z,6.74
2023-03-01T11:49:13.109Z,6.60
2023-03-01T11:51:49.822Z,6.24
2023-03-01T11:54:31.670Z,6.46
2023-03-01T11:57:04.517Z,6.30
2023-03-01T12:00:07.936Z,6.50
2023-03-01T12:03:46.278Z,6.71
2023-03-01T12:06:40.341Z,6.28
2023-03-01T12:09:28.849Z,6.74
2023-03-01T12:12:53.734Z,6.42
2023-03-01T12:22:36.869Z,6.61
2023-03-01T12:25:51.965Z,6.66
2023-03-01T12:32:04.918Z,6.52
2023-03-01T12:38:25.820Z,7.09
2023-03-01T12:41:44.196Z,7.03
2023-03-01T12:44:39.332Z,7.07
2023-03-01T12:47:24.619Z,6.49
2023-03-01T12:50:01.063Z,6.60
2023-03-01T12:56:19.117Z,6.33
2023-03-01T12:58:58.770Z,6.84
2023-03-01T13:01:37.587Z,6.90
2023-03-01T13:04:16.457Z,7.03
2023-03-01T13:06:54.561Z,6.86
2023-03-01T13:09:30.512Z,6.48
2023-03-01T13:11:57.437Z,6.78
2023-03-01T13:14:47.874Z,7.19
2023-03-01T13:17:49.189Z,6.97
2023-03-01T13:20:18.339Z,6.82
2023-03-01T13:22:54.341Z,6.64
2023-03-01T13:25:23.131Z,6.95
2023-03-01T13:27:50.989Z,6.98
2023-03-01T13:30:40.408Z,7.03
2023-03-01T13:33:47.541Z,6.93
2023-03-01T13:36:48.746Z,7.44
2023-03-01T13:39:30.641Z,6.97
2023-03-01T13:41:57.801Z,7.21
2023-03-01T13:44:29.755Z,6.72
2023-03-01T13:47:00.302Z,6.99
2023-03-01T13:49:46.000Z,6.58
2023-03-01T13:52:41.769Z,6.75
2023-03-01T13:55:19.531Z,7.22
2023-03-01T13:57:56.663Z,6.71
2023-03-01T14:00:41.224Z,7.02
2023-03-01T14:03:14.449Z,6.91
2023-03-01T14:05:46.971Z,7.11
2023-03-01T14:08:23.171Z,6.89
2023-03-01T14:11:28.223Z,7.38
2023-03-01T14:14:11.876Z,7.23
2023-03-01T14:16:50.412Z,6.80
2023-03-01T14:22:26.030Z,6.90
2023-03-01T14:28:31.848Z,6.86
2023-03-01T14:31:52.706Z,7.04
2023-03-01T14:34:27.405Z,6.76
2023-03-01T14:36:56.723Z,6.88
2023-03-01T14:39:38.666Z,6.98
2023-03-01T14:42:15.687Z,7.05
2023-03-01T14:45:02.675Z,7.16
2023-03-01T14:47:35.167Z,6.97
2023-03-01T14:50:11.649Z,7.25
2023-03-01T14:52:45.207Z,7.57
2023-03-01T14:55:38.356Z,7.65
2023-03-01T14:58:18.184Z,7.49
2023-03-01T15:00:50.630Z,7.21
2023-03-01T15:03:25.404Z,7.62
2023-03-01T15:05:59.011Z,7.15
2023-03-01T15:08:31.257Z,7.50
2023-03-01T15:11:23.355Z,7.21
2023-03-01T15:14:04.094Z,7.10
2023-03-01T15:16:47.120Z,7.63
2023-03-01T15:19:23.765Z,7.19
2023-03-01T15:21:59.953Z,7.32
2023-03-01T15:24:50.805Z,7.67
2023-03-01T15:27:21.225Z,7.57
2023-03-01T15:30:01.912Z,7.24
2023-03-01T15:32:31.066Z,7.55
2023-03-01T15:34:58.452Z,7.14
2023-03-01T15:37:40.450Z,6.79
2023-03-01T15:40:19.962Z,6.94
2023-03-01T15:42:48.142Z,7.02
2023-03-01T15:45:23.443Z,6.96
2023-03-01T15:47:52.269Z,6.99
2023-03-01T15:50:23.301Z,7.11
2023-03-01T15:52:50.761Z,7.13
2023-03-01T15:55:19.984Z,6.98
2023-03-01T15:57:49.140Z,7.10
2023-03-01T16:00:17.656Z,7.39
2023-03-01T16:02:45.184Z,6.79
2023-03-01T16:05:19.657Z,7.00
2023-03-01T16:07:46.476Z,6.92
2023-03-01T16:10:13.303Z,6.71
2023-03-01T16:12:40.005Z,6.35
2023-03-01T16:15:16.747Z,6.66
2023-03-01T16:17:43.351Z,6.84
2023-03-01T16:20:14.812Z,7.09
2023-03-01T16:22:44.900Z,6.99
2023-03-01T16:25:12.434Z,6.53
2023-03-01T16:27:39.866Z,6.52
2023-03-01T16:30:07.642Z,6.42
2023-03-01T16:32:38.908Z,6.41
2023-03-01T16:35:06.251Z,6.32
2023-03-01T16:37:33.668Z,6.47
2023-03-01T16:40:00.399Z,6.44
2023-03-01T16:42:27.162Z,6.72
2023-03-01T16:44:55.812Z,6.41
2023-03-01T16:47:22.503Z,6.53
2023-03-01T16:49:52.678Z,6.26
2023-03-01T16:52:19.405Z,6.32
2023-03-01T16:54:45.999Z,6.12
2023-03-01T16:57:13.077Z,6.05
2023-03-01T16:59:39.814Z,6.24
2023-03-01T17:02:07.478Z,5.96
2023-03-01T17:04:34.060Z,5.57
2023-03-01T17:07:02.039Z,5.55
2023-03-01T17:09:30.581Z,5.54
2023-03-01T17:11:57.982Z,5.75
2023-03-01T17:14:24.670Z,5.67
2023-03-01T17:16:51.331Z,5.34
2023-03-01T17:19:18.106Z,5.68
2023-03-01T17:21:44.825Z,5.54
2023-03-01T17:24:13.182Z,5.50
2023-03-01T17:26:40.804Z,5.50
2023-03-01T17:29:07.810Z,5.76
2023-03-01T17:31:35.387Z,5.54
2023-03-01T17:34:02.125Z,5.65
2023-03-01T17:36:30.131Z,5.71
2023-03-01T17:38:57.008Z,5.28
2023-03-01T17:41:25.126Z,5.43
2023-03-01T17:43:51.825Z,5.25
2023-03-01T17:46:18.409Z,5.17
2023-03-01T17:48:45.285Z,5.25
2023-03-01T17:51:12.236Z,5.33
2023-03-01T17:53:38.901Z,4.96
2023-03-01T17:56:08.453Z,5.13
2023-03-01T17:58:36.676Z,5.27
2023-03-01T18:01:14.042Z,4.92
2023-03-01T18:03:43.567Z,5.07
2023-03-01T18:06:12.316Z,5.28
2023-03-01T18:08:38.916Z,5.15
2023-03-01T18:11:05.613Z,5.18
2023-03-01T18:13:32.191Z,4.83
2023-03-01T18:16:04.428Z,4.90
2023-03-01T18:18:31.318Z,5.15
2023-03-01T18:20:58.943Z,5.15
2023-03-01T18:23:26.007Z,4.76
2023-03-01T18:25:57.642Z,5.02
2023-03-01T18:28:24.761Z,4.87
2023-03-01T18:30:56.690Z,4.92
2023-03-01T18:33:24.864Z,4.98
2023-03-01T18:35:51.550Z,5.08
2023-03-01T18:38:18.862Z,4.80
2023-03-01T18:40:46.149Z,4.90
2023-03-01T18:43:13.350Z,4.92
2023-03-01T18:45:40.125Z,4.99
2023-03-01T18:48:07.071Z,4.82
2023-03-01T18:50:35.031Z,4.69
2023-03-01T18:53:01.696Z,4.93
2023-03-01T18:55:28.366Z,4.68
2023-03-01T18:58:00.566Z,4.88
2023-03-01T19:00:27.272Z,5.06
2023-03-01T19:02:54.001Z,4.65
2023-03-01T19:05:21.446Z,4.45
2023-03-01T19:07:49.556Z,4.40
2023-03-01T19:10:16.795Z,4.16
2023-03-01T19:12:43.408Z,4.48
2023-03-01T19:15:11.142Z,4.35
2023-03-01T19:17:37.775Z,4.46
2023-03-01T19:20:05.510Z,4.13
2023-03-01T19:22:32.201Z,4.43
2023-03-01T19:25:00.266Z,4.41
2023-03-01T19:27:26.924Z,4.44
2023-03-01T19:29:53.515Z,4.32
2023-03-01T19:32:20.395Z,4.24
2023-03-01T19:34:47.256Z,4.52
2023-03-01T19:37:13.985Z,4.36
2023-03-01T19:39:42.338Z,4.22
2023-03-01T19:42:11.006Z,4.44
2023-03-01T19:44:37.719Z,4.56
2023-03-01T19:47:04.541Z,4.54
2023-03-01T19:49:31.216Z,4.46
2023-03-01T19:51:57.901Z,4.12
2023-03-01T19:54:24.500Z,4.40
2023-03-01T19:59:48.354Z,4.32
2023-03-01T20:02:14.954Z,4.37
2023-03-01T20:04:41.486Z,4.40
2023-03-01T20:07:08.268Z,4.11
2023-03-01T20:09:34.818Z,4.29
2023-03-01T20:12:01.412Z,4.39
2023-03-01T20:14:28.026Z,4.37
2023-03-01T20:16:56.003Z,4.35
2023-03-01T20:19:22.580Z,4.19
2023-03-01T20:21:49.446Z,4.07
2023-03-01T20:24:16.039Z,4.13
2023-03-01T20:26:42.647Z,4.23
2023-03-01T20:29:09.513Z,4.07
2023-03-01T20:31:36.371Z,4.13
2023-03-01T20:34:04.412Z,3.76
2023-03-01T20:36:31.111Z,3.80
2023-03-01T20:38:57.902Z,3.56
2023-03-01T20:41:24.519Z,3.73
2023-03-01T20:43:57.262Z,3.65
2023-03-01T20:46:24.933Z,3.71
2023-03-01T20:48:53.429Z,3.72
2023-03-01T20:51:21.564Z,3.79
2023-03-01T20:53:48.148Z,3.41
2023-03-01T20:56:15.983Z,3.82
2023-03-01T20:58:42.659Z,3.76
2023-03-01T21:01:11.010Z,3.63
2023-03-01T21:03:39.902Z,3.59
2023-03-01T21:06:06.794Z,3.34
2023-03-01T21:08:35.412Z,3.35
2023-03-01T21:11:02.677Z,3.29
2023-03-01T21:13:31.343Z,3.37
2023-03-01T21:16:02.643Z,3.22
2023-03-01T21:18:30.620Z,3.37
2023-03-01T21:20:59.227Z,3.26
2023-03-01T21:23:28.844Z,3.25
2023-03-01T21:26:15.501Z,3.30
2023-03-01T21:28:46.929Z,3.26
2023-03-01T21:31:17.070Z,3.23
2023-03-01T21:33:53.652Z,3.35
2023-03-01T21:36:32.334Z,3.36
2023-03-01T21:39:17.872Z,3.44
2023-03-01T21:41:45.890Z,3.70
2023-03-01T21:44:12.418Z,3.64
2023-03-01T21:46:39.674Z,3.26
2023-03-01T21:49:07.534Z,3.30
2023-03-01T21:51:34.560Z,3.29
2023-03-01T21:54:01.146Z,3.21
2023-03-01T21:56:30.606Z,3.09
2023-03-01T21:58:58.742Z,3.01
2023-03-01T22:01:27.866Z,3.37
2023-03-01T22:03:55.558Z,3.44
2023-03-01T22:06:24.138Z,3.18
2023-03-01T22:08:52.547Z,3.38
2023-03-01T22:11:20.636Z,3.23
2023-03-01T22:13:49.309Z,3.34
2023-03-01T22:16:17.668Z,3.21
2023-03-01T22:18:44.418Z,3.05
2023-03-01T22:21:11.151Z,2.87
2023-03-01T22:23:39.083Z,3.06
2023-03-01T22:26:06.633Z,3.40
2023-03-01T22:28:33.977Z,3.24
2023-03-01T22:31:04.076Z,3.10
2023-03-01T22:33:32.531Z,3.00
2023-03-01T22:35:59.127Z,3.03
2023-03-01T22:38:25.692Z,3.12
2023-03-01T22:40:58.517Z,2.96
2023-03-01T22:43:25.334Z,3.17
2023-03-01T22:45:51.906Z,2.87
2023-03-01T22:48:18.534Z,3.09
2023-03-01T22:50:47.450Z,2.64
2023-03-01T22:53:14.388Z,2.86
2023-03-01T22:55:41.456Z,2.73
2023-03-01T22:58:08.527Z,2.91
2023-03-01T23:00:35.330Z,2.88
2023-03-01T23:03:02.341Z,2.74
2023-03-01T23:05:29.026Z,3.01
2023-03-01T23:07:57.116Z,3.04
2023-03-01T23:10:23.709Z,2.95
2023-03-01T23:12:50.274Z,2.57
2023-03-01T23:15:16.843Z,2.56
2023-03-01T23:17:43.418Z,2.61
2023-03-01T23:20:11.124Z,2.52
2023-03-01T23:22:37.943Z,2.71
2023-03-01T23:25:09.387Z,2.82
2023-03-01T23:27:36.912Z,2.78
2023-03-01T23:30:04.108Z,2.77
2023-03-01T23:32:30.699Z,2.72
2023-03-01T23:34:57.309Z,2.76
2023-03-01T23:37:29.521Z,2.66
2023-03-01T23:39:56.104Z,2.83
2023-03-01T23:42:24.222Z,2.83
2023-03-01T23:44:50.744Z,2.49
2023-03-01T23:47:17.305Z,2.93
2023-03-01T23:49:43.952Z,2.81
2023-03-01T23:52:12.295Z,2.89
2023-03-01T23:54:38.901Z,2.81
2023-03-01T23:57:05.540Z,2.90
2023-03-01T23:59:33.517Z,3.08
